Caernarfon, United Kingdom
Current Conditions -  °F | °C
As of 4:50 PM on Monday 22 Dec 2014 (Local Time) from EGOV Reporting Station
Haze Haze  
Wind Chill: 54°   Ceiling: 2800
Heat Index: 54°   Visibility: 4mi
Dew Point: 50°   Wind: 28mph
Humidity: 88%   Direction: 210°SSW
Pressure: 29.85"   Gusts: NA
Location:  53.14°N, 4.27°W
Report Text: EGOV 221650Z AUTO 21024KT 6000 HZ BKN028/// 12/10 Q1011
Loading
Personal Weather Stations






























Interactive Weather Map New forecast layout! Learn more

10-Day Weather Forecast

Advertisements
Track Severe Weather on mobile